Time;durP1;ratioP1;P1;durP2;ratioP2;P2;SDS_P1;SDS_P2;PMS_P1;PMS_P2;Temp;Humidity;BMP_temperature;BMP_pressure;BME280_temperature;BME280_humidity;BME280_pressure;Samples;Min_cycle;Max_cycle;Signal;HPM_P1;HPM_P2
2023/01/10 00:00:57;;;;;;;11.30;3.78;;;7.00;99.90;;;;;;4135406;28;20038;-75
2023/01/10 00:02:57;;;;;;;10.20;3.15;;;6.90;99.90;;;;;;4143595;28;20092;-75
2023/01/10 00:04:58;;;;;;;9.40;3.88;;;7.00;99.90;;;;;;4145600;28;20465;-75
2023/01/10 00:06:59;;;;;;;11.35;3.38;;;7.00;99.90;;;;;;4141664;28;20026;-75
2023/01/10 00:09:00;;;;;;;8.27;3.00;;;7.00;99.90;;;;;;4117782;28;20424;-74
2023/01/10 00:13:22;;;;;;;11.60;3.72;;;7.00;99.90;;;;;;4144235;28;20117;-74
2023/01/10 00:13:26;;;;;;;10.68;3.70;;;7.00;99.90;;;;;;4124850;28;20133;-74
2023/01/10 00:15:27;;;;;;;7.85;3.22;;;7.00;99.90;;;;;;4128488;28;20050;-75
2023/01/10 00:17:30;;;;;;;11.93;3.50;;;7.00;99.90;;;;;;4136406;28;20069;-75
2023/01/10 00:19:31;;;;;;;9.40;3.38;;;7.00;99.90;;;;;;4140568;28;20038;-75
2023/01/10 00:21:32;;;;;;;14.00;4.13;;;7.10;99.90;;;;;;4145004;28;20034;-74
2023/01/10 00:23:32;;;;;;;5.95;2.80;;;7.10;99.90;;;;;;4131033;28;20053;-74
2023/01/10 00:25:34;;;;;;;8.77;3.00;;;7.10;99.90;;;;;;4130033;28;20042;-74
2023/01/10 00:27:35;;;;;;;6.70;3.08;;;7.10;99.90;;;;;;4138261;28;20509;-74
2023/01/10 00:29:36;;;;;;;10.77;3.47;;;7.10;99.90;;;;;;4126838;28;20040;-74
2023/01/10 00:31:37;;;;;;;8.70;3.00;;;7.10;99.90;;;;;;4134954;28;20046;-74
2023/01/10 00:33:38;;;;;;;9.00;3.05;;;7.10;99.90;;;;;;4138667;28;20033;-75
2023/01/10 00:35:39;;;;;;;12.95;2.70;;;7.10;99.90;;;;;;4114915;28;20410;-74
2023/01/10 00:37:39;;;;;;;12.07;3.92;;;7.20;99.90;;;;;;4141859;28;20506;-75
2023/01/10 00:39:40;;;;;;;11.50;4.25;;;7.20;99.90;;;;;;4135016;28;20564;-74
2023/01/10 00:44:00;;;;;;;10.18;2.95;;;7.10;99.90;;;;;;4143357;28;20036;-74
2023/01/10 00:46:01;;;;;;;10.10;3.15;;;7.10;99.90;;;;;;4143037;28;20562;-74
2023/01/10 00:48:02;;;;;;;9.75;2.83;;;7.10;99.90;;;;;;4137665;28;20034;-74
2023/01/10 00:50:07;;;;;;;10.02;3.05;;;7.10;99.90;;;;;;4129006;28;20061;-74
2023/01/10 00:52:08;;;;;;;9.18;2.63;;;7.10;99.90;;;;;;4124432;28;20033;-74
2023/01/10 00:54:09;;;;;;;12.85;3.40;;;7.10;99.90;;;;;;4146559;28;20125;-75
2023/01/10 00:56:10;;;;;;;13.13;3.30;;;7.10;99.90;;;;;;4144365;28;20046;-74
2023/01/10 00:58:12;;;;;;;9.55;2.90;;;7.10;99.90;;;;;;4133323;28;20038;-73
2023/01/10 01:00:13;;;;;;;10.63;3.55;;;7.10;99.90;;;;;;4133059;28;20034;-75
2023/01/10 01:02:14;;;;;;;8.60;2.85;;;7.00;99.90;;;;;;4132867;28;20044;-74
2023/01/10 01:04:15;;;;;;;12.20;3.55;;;7.10;99.90;;;;;;4144485;28;20050;-75
2023/01/10 01:06:16;;;;;;;8.77;2.90;;;7.10;99.90;;;;;;4141754;28;20033;-72
2023/01/10 01:08:17;;;;;;;14.13;2.95;;;7.10;99.90;;;;;;4143341;28;20033;-73
2023/01/10 01:10:27;;;;;;;9.10;3.20;;;7.10;99.90;;;;;;4133635;28;20113;-75
2023/01/10 01:12:28;;;;;;;12.27;3.05;;;7.10;99.90;;;;;;4101869;28;20653;-74
2023/01/10 01:14:29;;;;;;;10.35;2.83;;;7.10;99.90;;;;;;4134714;28;20057;-75
2023/01/10 01:16:30;;;;;;;11.60;3.20;;;7.10;99.90;;;;;;4126086;28;20042;-74
2023/01/10 01:18:31;;;;;;;10.60;3.00;;;7.10;99.90;;;;;;4129493;28;20057;-75
2023/01/10 01:20:32;;;;;;;10.50;2.95;;;7.10;99.90;;;;;;4128988;28;20530;-74
2023/01/10 01:22:33;;;;;;;9.48;2.85;;;7.10;99.90;;;;;;4126226;28;20030;-75
2023/01/10 01:24:34;;;;;;;8.77;2.50;;;7.10;99.90;;;;;;4127120;28;20184;-74
2023/01/10 01:26:38;;;;;;;8.85;2.20;;;7.10;99.90;;;;;;4125287;28;20037;-74
2023/01/10 01:28:39;;;;;;;10.55;2.72;;;7.10;99.90;;;;;;4117909;28;20081;-74
2023/01/10 01:30:40;;;;;;;10.68;3.05;;;7.20;99.90;;;;;;4145321;28;20105;-75
2023/01/10 01:32:41;;;;;;;9.15;2.35;;;7.10;99.90;;;;;;4144578;28;20081;-74
2023/01/10 01:34:41;;;;;;;8.50;2.63;;;7.20;99.90;;;;;;4144353;28;20104;-75
2023/01/10 01:36:42;;;;;;;8.38;2.83;;;7.20;99.90;;;;;;4124949;28;20435;-74
2023/01/10 01:38:43;;;;;;;9.85;2.80;;;7.20;99.90;;;;;;4158512;28;20036;-74
2023/01/10 01:40:44;;;;;;;11.00;2.75;;;7.20;99.90;;;;;;4112598;28;20050;-74
2023/01/10 01:42:45;;;;;;;6.10;2.40;;;7.10;99.90;;;;;;4126561;28;20031;-72
2023/01/10 01:45:24;;;;;;;13.77;3.50;;;7.10;99.90;;;;;;4126856;28;20474;-74
2023/01/10 01:47:26;;;;;;;10.57;2.78;;;7.10;99.90;;;;;;4145486;28;20469;-75
2023/01/10 01:49:29;;;;;;;9.90;2.17;;;7.10;99.90;;;;;;4129662;28;20041;-74
2023/01/10 01:51:31;;;;;;;7.20;2.22;;;7.10;99.90;;;;;;4116635;28;20041;-74
2023/01/10 01:54:07;;;;;;;9.50;2.60;;;7.10;99.90;;;;;;4127781;28;20033;-71
2023/01/10 01:56:28;;;;;;;9.60;2.60;;;7.10;99.90;;;;;;4125387;28;20030;-74
2023/01/10 01:58:43;;;;;;;14.93;2.78;;;7.10;99.90;;;;;;4151701;28;20045;-75
2023/01/10 02:00:44;;;;;;;12.80;3.08;;;7.10;99.90;;;;;;4157708;28;20385;-75
2023/01/10 02:02:51;;;;;;;9.40;2.95;;;7.10;99.90;;;;;;4154227;23;20065;-68
2023/01/10 02:05:13;;;;;;;7.20;2.53;;;7.00;99.90;;;;;;4138245;28;20026;-68
2023/01/10 02:07:14;;;;;;;12.77;3.80;;;7.10;99.90;;;;;;4145617;28;20034;-68
2023/01/10 02:09:27;;;;;;;9.20;3.08;;;7.00;99.90;;;;;;4144769;28;20049;-68
2023/01/10 02:11:28;;;;;;;8.40;2.80;;;7.00;99.90;;;;;;4159748;28;20112;-68
2023/01/10 02:13:32;;;;;;;12.07;3.00;;;7.00;99.90;;;;;;4160599;28;20060;-67
2023/01/10 02:15:32;;;;;;;10.57;2.60;;;7.00;99.90;;;;;;4160061;28;20369;-68
2023/01/10 02:17:33;;;;;;;7.63;2.40;;;7.00;99.90;;;;;;4154108;28;20037;-68
2023/01/10 02:20:05;;;;;;;10.75;2.85;;;6.90;99.90;;;;;;4153109;28;20404;-68
2023/01/10 02:22:29;;;;;;;8.80;2.85;;;6.90;99.90;;;;;;4131769;28;20030;-68
2023/01/10 02:24:46;;;;;;;8.20;2.33;;;6.90;99.90;;;;;;4142980;28;20040;-68
2023/01/10 02:26:57;;;;;;;13.43;3.15;;;6.80;99.90;;;;;;4154075;28;20398;-68
2023/01/10 02:30:05;;;;;;;10.60;2.40;;;6.80;99.90;;;;;;4128318;28;20397;-68
2023/01/10 02:32:18;;;;;;;10.75;3.05;;;6.70;99.90;;;;;;4014916;29;20109;-68
2023/01/10 02:34:27;;;;;;;13.18;2.47;;;6.70;99.90;;;;;;4047161;29;20397;-67
2023/01/10 02:36:50;;;;;;;10.57;3.05;;;6.70;99.90;;;;;;4085446;28;20030;-68
2023/01/10 02:39:03;;;;;;;;;;;6.70;99.90;;;;;;4142514;28;20030;-67
2023/01/10 02:41:22;;;;;;;15.13;3.10;;;6.70;99.90;;;;;;4143733;28;19916;-68
2023/01/10 02:43:38;;;;;;;8.45;2.50;;;6.60;99.90;;;;;;4128097;28;20034;-67
2023/01/10 02:46:02;;;;;;;11.13;2.50;;;6.60;99.90;;;;;;4133611;28;20084;-68
2023/01/10 02:48:03;;;;;;;10.25;2.63;;;6.60;99.90;;;;;;4154331;28;20393;-68
2023/01/10 02:50:40;;;;;;;14.55;3.72;;;6.60;99.90;;;;;;4154031;28;20034;-69
2023/01/10 02:52:40;;;;;;;13.38;2.90;;;6.60;99.90;;;;;;4131863;28;20052;-68
2023/01/10 02:54:41;;;;;;;8.55;2.58;;;6.50;99.90;;;;;;4144843;28;20432;-68
2023/01/10 02:57:08;;;;;;;13.35;2.92;;;6.50;99.90;;;;;;4143907;28;21583;-68
2023/01/10 02:59:33;;;;;;;9.02;2.20;;;6.50;99.90;;;;;;4131496;28;20038;-68
2023/01/10 03:01:58;;;;;;;12.55;3.67;;;6.50;99.90;;;;;;4160032;28;20033;-68
2023/01/10 03:04:12;;;;;;;15.25;3.13;;;6.40;99.90;;;;;;4128337;28;20589;-68
2023/01/10 03:06:40;;;;;;;8.52;2.45;;;6.40;99.90;;;;;;4128271;28;20038;-69
2023/01/10 03:09:16;;;;;;;7.45;2.65;;;6.40;99.90;;;;;;4111637;28;20063;-69
2023/01/10 03:11:38;;;;;;;9.57;2.90;;;6.40;99.90;;;;;;4080216;28;20027;-69
2023/01/10 03:13:50;;;;;;;20.92;4.07;;;6.40;99.90;;;;;;4112296;28;20114;-69
2023/01/10 03:15:53;;;;;;;9.13;2.37;;;6.40;99.90;;;;;;4111608;28;20079;-68
2023/01/10 03:17:55;;;;;;;;;;;6.40;99.90;;;;;;4120567;28;20607;-69
2023/01/10 03:20:00;;;;;;;11.37;2.60;;;6.30;99.90;;;;;;4122795;28;20000;-68
2023/01/10 03:22:02;;;;;;;16.15;3.20;;;6.40;99.90;;;;;;4121924;28;20069;-69
2023/01/10 03:24:09;;;;;;;12.20;3.10;;;6.40;99.90;;;;;;4099756;28;20038;-69
2023/01/10 03:26:11;;;;;;;11.07;3.28;;;6.30;99.90;;;;;;4096064;28;20051;-69
2023/01/10 03:28:20;;;;;;;10.18;3.13;;;6.30;99.90;;;;;;4120591;28;20041;-69
2023/01/10 03:30:30;;;;;;;9.93;2.63;;;6.30;99.90;;;;;;4122407;28;20041;-68
2023/01/10 03:32:31;;;;;;;8.60;2.47;;;6.30;99.90;;;;;;4128487;28;20556;-69
2023/01/10 03:34:33;;;;;;;13.65;2.88;;;6.30;99.90;;;;;;4128660;28;20034;-69
2023/01/10 03:36:49;;;;;;;7.82;2.95;;;6.40;99.90;;;;;;4117718;28;20090;-69
2023/01/10 03:38:55;;;;;;;14.07;3.58;;;6.30;99.90;;;;;;4110846;28;20057;-68
2023/01/10 03:41:06;;;;;;;10.23;2.63;;;6.30;99.90;;;;;;4112524;28;20035;-69
2023/01/10 03:46:17;;;;;;;7.40;2.35;;;6.30;99.90;;;;;;4114972;28;20038;-69
2023/01/10 03:48:19;;;;;;;7.32;2.03;;;6.40;99.90;;;;;;4124557;28;20055;-69
2023/01/10 03:50:23;;;;;;;12.75;2.92;;;6.40;99.90;;;;;;4117745;28;20037;-67
2023/01/10 03:52:24;;;;;;;14.43;2.63;;;6.50;99.90;;;;;;4115232;28;20038;-69
2023/01/10 03:54:25;;;;;;;11.73;3.13;;;6.50;99.90;;;;;;4115372;28;20034;-68
2023/01/10 03:56:26;;;;;;;11.55;2.78;;;6.40;99.90;;;;;;4114496;28;20438;-69
2023/01/10 03:58:28;;;;;;;8.57;2.63;;;6.50;99.90;;;;;;4126509;28;20034;-69
2023/01/10 04:00:29;;;;;;;11.38;2.58;;;6.50;99.90;;;;;;4124197;28;20049;-69
2023/01/10 04:02:31;;;;;;;9.35;2.53;;;6.50;99.90;;;;;;4133710;28;20045;-69
2023/01/10 04:04:31;;;;;;;15.50;2.90;;;6.50;99.90;;;;;;4138581;28;20520;-69
2023/01/10 04:06:32;;;;;;;15.82;3.65;;;6.40;99.90;;;;;;4129652;28;20030;-69
2023/01/10 04:08:33;;;;;;;13.20;2.63;;;6.40;99.90;;;;;;4145201;28;20117;-69
2023/01/10 04:10:33;;;;;;;10.75;2.65;;;6.50;99.90;;;;;;4140845;28;20108;-69
2023/01/10 04:12:34;;;;;;;10.52;2.58;;;6.50;99.90;;;;;;4147169;28;20057;-69
2023/01/10 04:14:34;;;;;;;10.18;2.78;;;6.50;99.90;;;;;;4147343;28;20030;-69
2023/01/10 04:16:35;;;;;;;12.80;3.05;;;6.40;99.90;;;;;;4143620;28;20497;-69
2023/01/10 04:18:36;;;;;;;9.52;2.92;;;6.40;99.90;;;;;;4136328;28;20498;-69
2023/01/10 04:20:36;;;;;;;10.32;2.67;;;6.40;99.90;;;;;;4141044;28;20034;-69
2023/01/10 04:22:37;;;;;;;11.65;3.28;;;6.40;99.90;;;;;;4147115;28;20038;-69
2023/01/10 04:24:38;;;;;;;11.45;2.78;;;6.40;99.90;;;;;;4146983;28;20026;-69
2023/01/10 04:26:38;;;;;;;12.57;3.05;;;6.40;99.90;;;;;;4144249;28;20038;-69
2023/01/10 04:28:39;;;;;;;14.20;2.97;;;6.40;99.90;;;;;;4144697;28;20137;-69
2023/01/10 04:30:39;;;;;;;12.25;3.03;;;6.40;99.90;;;;;;4140249;28;20034;-69
2023/01/10 04:32:40;;;;;;;12.18;3.38;;;6.40;99.90;;;;;;4129600;28;20038;-69
2023/01/10 04:34:40;;;;;;;10.32;2.47;;;6.30;99.90;;;;;;4144641;28;20045;-69
2023/01/10 04:36:41;;;;;;;14.20;2.95;;;6.40;99.90;;;;;;4143487;28;20030;-69
2023/01/10 04:38:42;;;;;;;13.32;3.17;;;6.40;99.90;;;;;;4140255;28;20031;-69
2023/01/10 04:40:43;;;;;;;13.15;3.08;;;6.30;99.90;;;;;;4142230;28;20519;-69
2023/01/10 04:42:43;;;;;;;10.73;2.90;;;6.30;99.90;;;;;;4146387;28;20500;-69
2023/01/10 04:44:44;;;;;;;14.25;3.42;;;6.30;99.90;;;;;;4134101;28;20034;-69
2023/01/10 04:46:45;;;;;;;8.60;2.25;;;6.30;99.90;;;;;;4128659;28;20394;-69
2023/01/10 04:48:45;;;;;;;14.55;3.50;;;6.30;99.90;;;;;;4141070;28;20157;-69
2023/01/10 04:50:50;;;;;;;9.95;2.63;;;6.30;99.90;;;;;;4143667;28;20029;-69
2023/01/10 04:52:51;;;;;;;10.25;2.85;;;6.30;99.90;;;;;;4146230;28;20030;-66
2023/01/10 04:54:52;;;;;;;11.52;3.15;;;6.30;99.90;;;;;;4135108;28;20569;-68
2023/01/10 04:56:52;;;;;;;17.27;3.08;;;6.30;99.90;;;;;;4127872;28;20031;-68
2023/01/10 04:58:53;;;;;;;8.70;2.05;;;6.30;99.90;;;;;;4115217;28;20023;-69
2023/01/10 05:00:54;;;;;;;7.35;2.45;;;6.30;99.90;;;;;;4134144;28;20062;-69
2023/01/10 05:02:56;;;;;;;15.00;3.22;;;6.30;99.90;;;;;;4137093;28;20073;-68
2023/01/10 05:04:56;;;;;;;13.90;3.38;;;6.30;99.90;;;;;;4146135;28;20030;-69
2023/01/10 05:06:57;;;;;;;9.50;2.70;;;6.30;99.90;;;;;;4142579;28;20432;-69
2023/01/10 05:08:58;;;;;;;12.05;2.60;;;6.30;99.90;;;;;;4142495;28;20037;-69
2023/01/10 05:10:58;;;;;;;10.35;2.80;;;6.30;99.90;;;;;;4146846;28;20030;-69
2023/01/10 05:12:59;;;;;;;9.95;2.85;;;6.30;99.90;;;;;;4146040;28;20033;-69
2023/01/10 05:14:59;;;;;;;14.70;2.45;;;6.30;99.90;;;;;;4154545;28;20037;-69
2023/01/10 05:17:00;;;;;;;14.00;2.97;;;6.30;99.90;;;;;;4144695;28;20034;-69
2023/01/10 05:19:01;;;;;;;10.20;2.75;;;6.30;99.90;;;;;;4146000;28;20045;-69
2023/01/10 05:21:04;;;;;;;13.57;2.83;;;6.30;99.90;;;;;;4157006;28;20393;-69
2023/01/10 05:23:05;;;;;;;17.27;3.25;;;6.30;99.90;;;;;;4141998;28;20081;-69
2023/01/10 05:25:06;;;;;;;11.98;2.88;;;6.20;99.90;;;;;;4124573;28;20035;-69
2023/01/10 05:27:06;;;;;;;13.02;2.88;;;6.20;99.90;;;;;;4140594;28;20178;-69
2023/01/10 05:29:13;;;;;;;12.68;2.90;;;6.20;99.90;;;;;;4138608;28;20038;-69
2023/01/10 05:31:16;;;;;;;13.73;3.15;;;6.20;99.90;;;;;;4142904;28;20033;-69
2023/01/10 05:33:17;;;;;;;10.02;3.05;;;6.30;99.90;;;;;;4136155;28;20088;-69
2023/01/10 05:35:17;;;;;;;15.30;3.33;;;6.20;99.90;;;;;;4141229;28;20037;-69
2023/01/10 05:37:18;;;;;;;10.43;3.10;;;6.30;99.90;;;;;;4138674;28;20042;-69
2023/01/10 05:39:20;;;;;;;16.17;3.15;;;6.20;99.90;;;;;;4141220;28;20061;-69
2023/01/10 05:41:20;;;;;;;14.05;3.45;;;6.20;99.90;;;;;;4143975;28;20026;-68
2023/01/10 05:43:22;;;;;;;12.00;3.03;;;6.20;99.90;;;;;;4138484;28;20049;-69
2023/01/10 05:45:22;;;;;;;12.07;2.70;;;6.30;99.90;;;;;;4137233;28;20042;-68
2023/01/10 05:47:24;;;;;;;6.88;2.10;;;6.20;99.90;;;;;;4138857;28;20408;-68
2023/01/10 05:49:24;;;;;;;15.32;3.00;;;6.30;99.90;;;;;;4141348;28;20034;-69
2023/01/10 05:51:25;;;;;;;17.63;4.05;;;6.20;99.90;;;;;;4140610;28;20683;-69
2023/01/10 05:53:26;;;;;;;14.80;3.05;;;6.30;99.90;;;;;;4136962;28;20047;-69
2023/01/10 05:55:26;;;;;;;17.63;3.67;;;6.20;99.90;;;;;;4136279;28;20139;-69
2023/01/10 05:57:27;;;;;;;14.07;3.53;;;6.20;99.90;;;;;;4141202;28;20052;-68
2023/01/10 05:59:28;;;;;;;12.30;2.78;;;6.20;99.90;;;;;;4140775;28;20045;-69
2023/01/10 06:01:28;;;;;;;23.98;4.25;;;6.20;99.90;;;;;;4138865;28;20045;-68
2023/01/10 06:03:29;;;;;;;11.60;2.45;;;6.20;99.90;;;;;;4136830;28;20126;-69
2023/01/10 06:05:30;;;;;;;15.70;3.28;;;6.20;99.90;;;;;;4140276;28;20037;-69
2023/01/10 06:07:31;;;;;;;14.75;3.63;;;6.20;99.90;;;;;;4128609;28;20030;-69
2023/01/10 06:09:31;;;;;;;10.57;3.22;;;6.20;99.90;;;;;;4142289;28;20029;-69
2023/01/10 06:11:35;;;;;;;12.30;3.53;;;6.10;99.90;;;;;;4139883;28;20026;-69
2023/01/10 06:13:35;;;;;;;11.48;3.00;;;6.10;99.90;;;;;;4136244;28;20100;-69
2023/01/10 06:15:36;;;;;;;14.93;3.08;;;6.20;99.90;;;;;;4139401;28;20090;-69
2023/01/10 06:17:37;;;;;;;14.75;2.88;;;6.20;99.90;;;;;;4138405;28;20133;-69
2023/01/10 06:19:37;;;;;;;20.02;3.80;;;6.10;99.90;;;;;;4137199;28;20033;-68
2023/01/10 06:21:38;;;;;;;14.00;3.15;;;6.20;99.90;;;;;;4138098;28;20042;-69
2023/01/10 06:23:39;;;;;;;13.48;2.85;;;6.10;99.90;;;;;;4131047;28;20030;-69
2023/01/10 06:25:40;;;;;;;13.20;3.17;;;6.20;99.90;;;;;;4143202;28;20060;-69
2023/01/10 06:27:42;;;;;;;15.60;3.05;;;6.10;99.90;;;;;;4152960;28;20044;-69
2023/01/10 06:29:42;;;;;;;10.82;3.33;;;6.10;99.90;;;;;;4155368;28;20392;-70
2023/01/10 06:31:43;;;;;;;14.20;3.10;;;6.10;99.90;;;;;;4145948;28;20030;-69
2023/01/10 06:33:43;;;;;;;17.63;3.22;;;6.10;99.90;;;;;;4143190;28;20042;-69
2023/01/10 06:35:45;;;;;;;9.77;3.28;;;6.10;99.90;;;;;;4140351;28;20033;-69
2023/01/10 06:37:46;;;;;;;13.98;2.97;;;6.10;99.90;;;;;;4126103;28;20045;-69
2023/01/10 06:39:46;;;;;;;16.08;3.42;;;6.10;99.90;;;;;;4146266;28;20037;-69
2023/01/10 06:41:47;;;;;;;21.10;4.28;;;6.10;99.90;;;;;;4148350;28;20116;-69
2023/01/10 06:43:48;;;;;;;21.05;5.47;;;6.10;99.90;;;;;;4149961;28;20450;-69
2023/01/10 06:45:49;;;;;;;12.13;4.03;;;6.10;99.90;;;;;;4140634;28;20167;-69
2023/01/10 06:47:49;;;;;;;16.55;3.97;;;6.10;99.90;;;;;;4152460;28;20108;-69
2023/01/10 06:49:50;;;;;;;10.90;3.28;;;6.10;99.90;;;;;;4156003;28;20144;-69
2023/01/10 06:51:51;;;;;;;8.57;2.50;;;6.10;99.90;;;;;;4133280;28;20112;-67
2023/01/10 06:53:51;;;;;;;17.13;3.40;;;6.10;99.90;;;;;;4140042;28;20026;-68
2023/01/10 06:55:54;;;;;;;14.50;3.13;;;6.10;99.90;;;;;;4136358;28;20508;-69
2023/01/10 06:58:03;;;;;;;;;;;6.10;99.90;;;;;;4141494;28;20037;-69
2023/01/10 07:00:07;;;;;;;15.02;3.35;;;6.10;99.90;;;;;;4140301;28;19921;-71
2023/01/10 07:02:10;;;;;;;10.82;2.63;;;6.20;99.90;;;;;;4133228;28;20032;-69
2023/01/10 07:04:11;;;;;;;15.82;3.22;;;6.20;99.90;;;;;;4136091;28;20062;-69
2023/01/10 07:06:12;;;;;;;16.02;3.55;;;6.20;99.90;;;;;;4131378;28;20097;-69
2023/01/10 07:08:12;;;;;;;9.70;2.03;;;6.20;99.90;;;;;;4129884;28;20046;-69
2023/01/10 07:10:13;;;;;;;13.90;3.10;;;6.20;99.90;;;;;;4132240;28;20974;-70
2023/01/10 07:12:13;;;;;;;12.55;2.78;;;6.20;99.90;;;;;;4131300;28;20042;-70
2023/01/10 07:14:15;;;;;;;25.30;3.50;;;6.20;99.90;;;;;;4132643;28;20501;-69
2023/01/10 07:16:15;;;;;;;14.80;3.17;;;6.30;99.90;;;;;;4129313;28;20041;-70
2023/01/10 07:18:16;;;;;;;16.20;3.35;;;6.30;99.90;;;;;;4130715;28;20123;-74
2023/01/10 07:20:17;;;;;;;17.95;3.65;;;6.20;99.90;;;;;;4131771;28;20509;-74
2023/01/10 07:22:18;;;;;;;19.42;3.78;;;6.20;99.90;;;;;;4135248;28;20034;-74
2023/01/10 07:24:18;;;;;;;16.30;3.80;;;6.30;99.90;;;;;;4138334;28;20034;-74
2023/01/10 07:26:20;;;;;;;11.88;3.33;;;6.30;99.90;;;;;;4134634;28;20393;-74
2023/01/10 07:28:20;;;;;;;13.35;3.50;;;6.30;99.90;;;;;;4118971;28;20039;-74
2023/01/10 07:30:22;;;;;;;13.18;2.83;;;6.30;99.90;;;;;;4146162;28;20105;-74
2023/01/10 07:32:23;;;;;;;20.00;4.20;;;6.30;99.90;;;;;;4138350;28;20478;-73
2023/01/10 07:34:24;;;;;;;14.30;3.60;;;6.30;99.90;;;;;;4138133;28;20042;-72
2023/01/10 07:36:24;;;;;;;12.85;3.75;;;6.40;99.90;;;;;;4132902;28;20039;-73
2023/01/10 07:38:25;;;;;;;13.52;3.53;;;6.40;99.90;;;;;;4137920;28;20034;-73
2023/01/10 07:40:26;;;;;;;10.88;3.10;;;6.40;99.90;;;;;;4137734;28;20116;-75
2023/01/10 07:42:26;;;;;;;20.17;4.18;;;6.40;99.90;;;;;;4141570;28;20488;-73
2023/01/10 07:44:27;;;;;;;12.73;3.50;;;6.40;99.90;;;;;;4139761;28;20034;-73
2023/01/10 07:46:28;;;;;;;11.98;3.58;;;6.40;99.90;;;;;;4134123;28;20030;-73
2023/01/10 07:48:29;;;;;;;13.73;3.60;;;6.40;99.90;;;;;;4142691;28;20041;-73
2023/01/10 07:50:32;;;;;;;13.73;3.38;;;6.40;99.90;;;;;;4138628;28;20504;-73
2023/01/10 07:52:33;;;;;;;16.55;3.42;;;6.40;99.90;;;;;;4133435;28;20049;-73
2023/01/10 07:54:34;;;;;;;16.20;3.70;;;6.40;99.90;;;;;;4138373;28;20061;-73
2023/01/10 07:56:35;;;;;;;14.55;3.83;;;6.50;99.90;;;;;;4135235;28;20626;-74
2023/01/10 07:58:35;;;;;;;14.27;3.58;;;6.50;99.90;;;;;;4132089;28;20125;-74
2023/01/10 08:00:36;;;;;;;14.27;3.50;;;6.50;99.90;;;;;;4136934;28;20041;-73
2023/01/10 08:02:36;;;;;;;17.13;3.80;;;6.50;99.90;;;;;;4133874;28;20057;-73
2023/01/10 08:04:37;;;;;;;13.82;3.88;;;6.50;99.90;;;;;;4134611;28;20081;-73
2023/01/10 08:06:38;;;;;;;16.15;4.25;;;6.50;99.90;;;;;;4134582;28;20038;-73
2023/01/10 08:08:38;;;;;;;11.80;3.45;;;6.50;99.90;;;;;;4138223;28;20505;-73
2023/01/10 08:10:39;;;;;;;18.95;4.30;;;6.40;99.90;;;;;;4135280;28;20034;-73
2023/01/10 08:12:40;;;;;;;17.17;3.50;;;6.40;99.90;;;;;;4135285;28;20061;-74
2023/01/10 08:14:40;;;;;;;17.52;3.72;;;6.40;99.90;;;;;;4138247;28;20038;-73
2023/01/10 08:16:41;;;;;;;17.35;4.32;;;6.40;99.90;;;;;;4131777;28;20043;-74
2023/01/10 08:18:42;;;;;;;21.58;3.85;;;6.40;99.90;;;;;;4136619;28;20030;-73
2023/01/10 08:20:42;;;;;;;22.73;4.80;;;6.40;99.90;;;;;;4136942;28;20529;-73
2023/01/10 08:22:43;;;;;;;17.15;3.95;;;6.40;99.90;;;;;;4138237;28;20494;-72
2023/01/10 08:24:44;;;;;;;23.80;5.00;;;6.50;99.90;;;;;;4138894;28;20038;-72
2023/01/10 08:26:44;;;;;;;22.45;4.32;;;6.60;99.90;;;;;;4138220;28;20038;-73
2023/01/10 08:28:45;;;;;;;20.98;4.72;;;6.60;99.90;;;;;;4135622;28;20034;-72
2023/01/10 08:30:46;;;;;;;14.05;3.50;;;6.60;99.90;;;;;;4134977;28;20076;-72
2023/01/10 08:32:46;;;;;;;15.15;4.22;;;6.70;99.90;;;;;;4136230;28;20046;-72
2023/01/10 08:34:47;;;;;;;14.18;3.30;;;6.80;99.90;;;;;;4133824;28;20042;-72
2023/01/10 08:36:52;;;;;;;19.48;3.60;;;6.90;99.90;;;;;;4131712;28;20034;-73
2023/01/10 08:38:54;;;;;;;13.15;3.63;;;7.00;99.90;;;;;;4135562;28;20113;-67
2023/01/10 08:40:58;;;;;;;17.63;3.55;;;7.20;99.90;;;;;;4134577;28;20485;-69
2023/01/10 08:43:00;;;;;;;15.93;3.88;;;7.20;99.90;;;;;;4135056;28;20112;-73
2023/01/10 08:45:01;;;;;;;17.63;4.32;;;7.10;99.90;;;;;;4135416;28;20117;-73
2023/01/10 08:47:01;;;;;;;13.70;3.95;;;7.20;99.90;;;;;;4131087;28;20591;-73
2023/01/10 08:49:02;;;;;;;13.10;4.03;;;7.20;99.90;;;;;;4134490;28;20039;-73
2023/01/10 08:51:08;;;;;;;17.00;3.92;;;7.20;99.90;;;;;;4133371;28;20169;-73
2023/01/10 08:53:09;;;;;;;14.93;3.50;;;7.20;99.90;;;;;;4132369;28;20042;-73
2023/01/10 08:55:10;;;;;;;13.65;4.03;;;7.20;99.90;;;;;;4114880;28;20053;-72
2023/01/10 08:57:10;;;;;;;19.40;3.70;;;7.20;99.90;;;;;;4133313;28;20042;-73
2023/01/10 08:59:11;;;;;;;21.98;4.78;;;7.20;99.90;;;;;;4135292;28;20421;-73
2023/01/10 09:01:13;;;;;;;14.05;4.18;;;7.10;99.90;;;;;;4132491;28;20044;-74
2023/01/10 09:03:13;;;;;;;19.95;4.13;;;7.20;99.90;;;;;;4133306;28;20058;-74
2023/01/10 09:05:14;;;;;;;21.80;4.55;;;7.20;99.90;;;;;;4132109;28;20034;-74
2023/01/10 09:07:15;;;;;;;26.40;5.30;;;7.10;99.90;;;;;;4132064;28;20054;-74
2023/01/10 09:09:15;;;;;;;21.67;4.70;;;7.10;99.90;;;;;;4133291;28;20709;-74
2023/01/10 09:11:16;;;;;;;17.08;4.68;;;7.10;99.90;;;;;;4135111;28;20034;-73
2023/01/10 09:13:16;;;;;;;21.23;4.43;;;7.20;99.90;;;;;;4133538;28;20026;-74
2023/01/10 09:15:17;;;;;;;21.70;4.32;;;7.10;99.90;;;;;;4132679;28;20142;-73
2023/01/10 09:17:17;;;;;;;22.05;4.35;;;7.10;99.90;;;;;;4133847;28;20402;-74
2023/01/10 09:19:18;;;;;;;16.65;3.80;;;7.20;99.90;;;;;;4136151;28;20050;-74
2023/01/10 09:21:19;;;;;;;28.05;5.13;;;7.20;99.90;;;;;;4135440;28;20062;-74
2023/01/10 09:23:21;;;;;;;16.35;4.05;;;7.20;99.90;;;;;;4133408;28;20121;-74
2023/01/10 09:25:23;;;;;;;15.05;4.18;;;7.20;99.90;;;;;;4129109;28;20394;-73
2023/01/10 09:27:24;;;;;;;21.58;5.05;;;7.20;99.90;;;;;;4116756;28;20062;-73
2023/01/10 09:29:24;;;;;;;15.43;4.30;;;7.30;99.90;;;;;;4136702;28;20029;-73
2023/01/10 09:31:25;;;;;;;17.60;3.65;;;7.30;99.90;;;;;;4135945;28;20026;-74
2023/01/10 09:33:26;;;;;;;18.20;4.57;;;7.40;99.90;;;;;;4133138;28;20085;-72
2023/01/10 09:35:28;;;;;;;18.13;4.50;;;7.40;99.90;;;;;;4131414;28;20034;-77
2023/01/10 09:37:28;;;;;;;18.33;4.40;;;7.40;99.90;;;;;;4133154;28;20030;-75
2023/01/10 09:39:29;;;;;;;20.20;3.83;;;7.40;99.90;;;;;;4134111;28;20041;-78
2023/01/10 09:42:11;;;;;;;20.77;4.43;;;7.50;99.90;;;;;;4132805;28;20482;-74
2023/01/10 09:44:29;;;;;;;16.20;3.67;;;7.60;99.90;;;;;;4133009;28;20057;-74
2023/01/10 09:46:50;;;;;;;14.63;3.83;;;7.60;99.90;;;;;;4132522;28;20126;-73
2023/01/10 09:49:25;;;;;;;16.73;3.97;;;7.60;99.90;;;;;;4134251;28;20436;-73
2023/01/10 09:51:39;;;;;;;16.83;4.03;;;7.70;99.90;;;;;;4132472;28;20697;-69
2023/01/10 09:53:44;;;;;;;24.70;4.55;;;7.70;99.90;;;;;;4135771;28;20383;-74
2023/01/10 09:55:51;;;;;;;16.20;3.67;;;7.70;99.90;;;;;;4132496;28;20038;-74
2023/01/10 09:57:54;;;;;;;14.00;3.88;;;7.70;99.90;;;;;;4135244;28;20052;-74
2023/01/10 09:59:56;;;;;;;22.10;3.97;;;7.70;99.90;;;;;;4133079;28;20152;-73
2023/01/10 10:02:11;;;;;;;23.93;4.50;;;7.80;99.90;;;;;;4135385;28;20109;-72
2023/01/10 10:04:35;;;;;;;21.20;4.85;;;7.80;99.90;;;;;;4135255;28;20053;-73
2023/01/10 10:06:36;;;;;;;12.82;3.33;;;7.70;99.90;;;;;;4130533;28;20026;-73
2023/01/10 10:08:38;;;;;;;24.45;4.25;;;7.80;99.90;;;;;;4136544;28;20133;-73
2023/01/10 10:10:43;;;;;;;21.95;4.32;;;7.70;99.90;;;;;;4134283;28;20417;-73
2023/01/10 10:12:56;;;;;;;16.90;3.78;;;7.70;99.90;;;;;;4135282;28;20045;-73
2023/01/10 10:15:24;;;;;;;20.85;5.07;;;7.70;99.90;;;;;;4133508;28;20065;-72
2023/01/10 10:17:30;;;;;;;17.27;4.30;;;7.60;99.90;;;;;;4132299;28;20038;-72
2023/01/10 10:20:09;;;;;;;12.50;4.13;;;7.60;99.90;;;;;;4134085;28;20040;-73
2023/01/10 10:22:42;;;;;;;15.13;3.40;;;7.60;99.90;;;;;;4132515;28;20490;-73
2023/01/10 10:25:07;;;;;;;25.33;4.25;;;7.60;99.90;;;;;;4134764;28;20038;-73
2023/01/10 10:27:46;;;;;;;14.65;4.20;;;7.50;99.90;;;;;;4132549;28;20026;-73
2023/01/10 10:30:03;;;;;;;18.05;4.00;;;7.60;99.90;;;;;;4137576;28;20037;-73
2023/01/10 10:32:27;;;;;;;18.55;4.20;;;7.60;99.90;;;;;;4122808;28;20112;-72
2023/01/10 10:34:36;;;;;;;18.67;3.83;;;7.60;99.90;;;;;;4133802;28;20033;-73
2023/01/10 10:36:55;;;;;;;16.55;3.95;;;7.60;99.90;;;;;;4132471;28;20077;-73
2023/01/10 10:39:00;;;;;;;13.85;3.72;;;7.60;99.90;;;;;;4132236;28;20485;-73
2023/01/10 10:41:01;;;;;;;19.30;4.30;;;7.60;99.90;;;;;;4132943;28;20022;-72
2023/01/10 10:43:14;;;;;;;15.38;4.13;;;7.60;99.90;;;;;;4130626;28;20030;-72
2023/01/10 10:45:38;;;;;;;24.80;5.20;;;7.60;99.90;;;;;;4133117;28;20034;-72
2023/01/10 10:47:48;;;;;;;19.27;3.45;;;7.60;99.90;;;;;;4133627;28;20030;-73
2023/01/10 10:49:59;;;;;;;23.02;4.35;;;7.60;99.90;;;;;;4133736;28;20037;-74
2023/01/10 10:52:07;;;;;;;18.65;3.67;;;7.60;99.90;;;;;;4131471;28;20481;-72
2023/01/10 10:54:12;;;;;;;18.83;4.32;;;7.60;99.90;;;;;;4132418;28;20401;-73
2023/01/10 10:56:17;;;;;;;26.75;4.55;;;7.60;99.90;;;;;;4133719;28;20488;-73
2023/01/10 10:58:17;;;;;;;16.38;4.07;;;7.70;99.90;;;;;;4133774;28;20522;-73